Terminal Aerodrome Forecast
Issued by NWS Cleveland, OH

Home | Current Version | Previous Version | Graphics & Text | Print | Product List | Glossary On
Versions: 1 2 3 4 5 6 7 8 9 10 11 12 13 14 15 16 17 18 19
385
FTUS41 KCLE 222258 AAB
TAFMFD
TAF AMD
KMFD 222258Z 2223/2318 32007KT P6SM BKN028
     FM230100 26003KT P6SM SCT030
     FM231000 20008KT P6SM BKN035 OVC100=

USA.gov is the U.S. government's official web portal to all federal, state and local government web resources and services.